sensor_id;sensor_type;location;lat;lon;timestamp;pressure;altitude;pressure_sealevel;temperature;humidity
64368;BME280;50692;53.314;-6.300;2023-07-30T00:01:21;100087.28;;;15.85;81.68
64368;BME280;50692;53.314;-6.300;2023-07-30T00:04:08;100096.13;;;15.86;81.46
64368;BME280;50692;53.314;-6.300;2023-07-30T00:06:53;100097.94;;;15.85;81.52
64368;BME280;50692;53.314;-6.300;2023-07-30T00:09:40;100099.59;;;15.76;82.44
64368;BME280;50692;53.314;-6.300;2023-07-30T00:12:25;100108.78;;;15.72;83.18
64368;BME280;50692;53.314;-6.300;2023-07-30T00:15:11;100103.44;;;15.72;83.01
64368;BME280;50692;53.314;-6.300;2023-07-30T00:17:58;100115.22;;;15.70;83.07
64368;BME280;50692;53.314;-6.300;2023-07-30T00:20:44;100101.31;;;15.66;83.38
64368;BME280;50692;53.314;-6.300;2023-07-30T00:23:30;100096.47;;;15.60;83.80
64368;BME280;50692;53.314;-6.300;2023-07-30T00:26:15;100106.72;;;15.65;83.68
64368;BME280;50692;53.314;-6.300;2023-07-30T00:29:02;100114.72;;;15.65;83.87
64368;BME280;50692;53.314;-6.300;2023-07-30T00:31:48;100110.16;;;15.67;84.10
64368;BME280;50692;53.314;-6.300;2023-07-30T00:34:34;100115.50;;;15.67;83.87
64368;BME280;50692;53.314;-6.300;2023-07-30T00:37:20;100110.53;;;15.62;83.94
64368;BME280;50692;53.314;-6.300;2023-07-30T00:40:06;100107.38;;;15.57;84.09
64368;BME280;50692;53.314;-6.300;2023-07-30T00:42:52;100107.75;;;15.52;84.22
64368;BME280;50692;53.314;-6.300;2023-07-30T00:45:40;100112.59;;;15.58;84.37
64368;BME280;50692;53.314;-6.300;2023-07-30T00:48:28;100121.28;;;15.60;84.17
64368;BME280;50692;53.314;-6.300;2023-07-30T00:51:15;100127.13;;;15.66;83.91
64368;BME280;50692;53.314;-6.300;2023-07-30T00:54:02;100129.88;;;15.64;84.10
64368;BME280;50692;53.314;-6.300;2023-07-30T00:56:51;100134.59;;;15.60;84.31
64368;BME280;50692;53.314;-6.300;2023-07-30T00:59:38;100139.94;;;15.60;84.31
64368;BME280;50692;53.314;-6.300;2023-07-30T01:02:24;100135.19;;;15.64;83.98
64368;BME280;50692;53.314;-6.300;2023-07-30T01:05:09;100112.25;;;15.52;83.49
64368;BME280;50692;53.314;-6.300;2023-07-30T01:07:56;100135.97;;;15.66;85.09
64368;BME280;50692;53.314;-6.300;2023-07-30T01:10:42;100137.00;;;15.75;85.31
64368;BME280;50692;53.314;-6.300;2023-07-30T01:13:28;100135.59;;;15.59;86.69
64368;BME280;50692;53.314;-6.300;2023-07-30T01:16:14;100149.63;;;15.62;86.58
64368;BME280;50692;53.314;-6.300;2023-07-30T01:19:00;100138.84;;;15.63;86.42
64368;BME280;50692;53.314;-6.300;2023-07-30T01:21:49;100135.59;;;15.59;85.99
64368;BME280;50692;53.314;-6.300;2023-07-30T01:24:35;100139.72;;;15.52;86.34
64368;BME280;50692;53.314;-6.300;2023-07-30T01:27:33;100152.31;;;15.62;86.27
64368;BME280;50692;53.314;-6.300;2023-07-30T01:30:28;100153.38;;;15.59;86.04
64368;BME280;50692;53.314;-6.300;2023-07-30T01:33:15;100157.34;;;15.65;85.94
64368;BME280;50692;53.314;-6.300;2023-07-30T01:36:01;100147.91;;;15.60;85.45
64368;BME280;50692;53.314;-6.300;2023-07-30T01:38:48;100150.97;;;15.67;84.97
64368;BME280;50692;53.314;-6.300;2023-07-30T01:41:35;100154.59;;;15.66;85.09
64368;BME280;50692;53.314;-6.300;2023-07-30T01:44:21;100150.59;;;15.60;84.96
64368;BME280;50692;53.314;-6.300;2023-07-30T01:47:07;100153.75;;;15.66;84.92
64368;BME280;50692;53.314;-6.300;2023-07-30T01:49:52;100153.25;;;15.60;85.00
64368;BME280;50692;53.314;-6.300;2023-07-30T01:52:38;100158.94;;;15.67;84.40
64368;BME280;50692;53.314;-6.300;2023-07-30T01:55:24;100168.63;;;15.57;84.96
64368;BME280;50692;53.314;-6.300;2023-07-30T01:58:10;100151.44;;;15.61;84.77
64368;BME280;50692;53.314;-6.300;2023-07-30T02:00:56;100159.34;;;15.51;85.03
64368;BME280;50692;53.314;-6.300;2023-07-30T02:03:41;100164.41;;;15.66;84.32
64368;BME280;50692;53.314;-6.300;2023-07-30T02:06:27;100174.34;;;15.52;85.02
64368;BME280;50692;53.314;-6.300;2023-07-30T02:09:14;100175.09;;;15.54;85.14
64368;BME280;50692;53.314;-6.300;2023-07-30T02:12:00;100172.88;;;15.59;85.25
64368;BME280;50692;53.314;-6.300;2023-07-30T02:14:46;100175.78;;;15.56;85.43
64368;BME280;50692;53.314;-6.300;2023-07-30T02:17:31;100175.94;;;15.55;85.57
64368;BME280;50692;53.314;-6.300;2023-07-30T02:20:17;100180.63;;;15.63;85.59
64368;BME280;50692;53.314;-6.300;2023-07-30T02:23:03;100186.03;;;15.72;86.31
64368;BME280;50692;53.314;-6.300;2023-07-30T02:25:49;100187.28;;;15.68;87.67
64368;BME280;50692;53.314;-6.300;2023-07-30T02:28:35;100197.44;;;15.63;88.49
64368;BME280;50692;53.314;-6.300;2023-07-30T02:31:21;100197.00;;;15.58;88.91
64368;BME280;50692;53.314;-6.300;2023-07-30T02:34:06;100189.94;;;15.57;89.15
64368;BME280;50692;53.314;-6.300;2023-07-30T02:36:54;100193.63;;;15.45;89.58
64368;BME280;50692;53.314;-6.300;2023-07-30T02:39:40;100196.41;;;15.43;90.10
64368;BME280;50692;53.314;-6.300;2023-07-30T02:42:26;100196.53;;;15.42;90.42
64368;BME280;50692;53.314;-6.300;2023-07-30T02:45:12;100206.47;;;15.40;90.96
64368;BME280;50692;53.314;-6.300;2023-07-30T02:47:58;100201.28;;;15.38;91.80
64368;BME280;50692;53.314;-6.300;2023-07-30T02:50:44;100199.59;;;15.37;91.92
64368;BME280;50692;53.314;-6.300;2023-07-30T02:53:30;100206.63;;;15.27;92.80
64368;BME280;50692;53.314;-6.300;2023-07-30T02:56:16;100207.47;;;15.27;92.63
64368;BME280;50692;53.314;-6.300;2023-07-30T02:59:01;100223.69;;;15.24;92.70
64368;BME280;50692;53.314;-6.300;2023-07-30T03:01:47;100203.59;;;15.20;92.98
64368;BME280;50692;53.314;-6.300;2023-07-30T03:04:34;100197.19;;;15.23;92.39
64368;BME280;50692;53.314;-6.300;2023-07-30T03:07:20;100193.41;;;15.25;92.48
64368;BME280;50692;53.314;-6.300;2023-07-30T03:10:06;100192.22;;;15.18;92.31
64368;BME280;50692;53.314;-6.300;2023-07-30T03:12:52;100188.84;;;15.16;91.95
64368;BME280;50692;53.314;-6.300;2023-07-30T03:15:38;100189.09;;;15.13;91.71
64368;BME280;50692;53.314;-6.300;2023-07-30T03:18:24;100185.34;;;15.16;91.31
64368;BME280;50692;53.314;-6.300;2023-07-30T03:21:09;100180.50;;;15.09;91.22
64368;BME280;50692;53.314;-6.300;2023-07-30T03:23:55;100188.34;;;15.11;91.28
64368;BME280;50692;53.314;-6.300;2023-07-30T03:26:41;100192.59;;;15.14;90.79
64368;BME280;50692;53.314;-6.300;2023-07-30T03:29:27;100200.81;;;15.10;90.41
64368;BME280;50692;53.314;-6.300;2023-07-30T03:32:12;100202.03;;;15.18;90.04
64368;BME280;50692;53.314;-6.300;2023-07-30T03:34:58;100206.88;;;15.24;89.90
64368;BME280;50692;53.314;-6.300;2023-07-30T03:37:44;100193.69;;;15.22;89.54
64368;BME280;50692;53.314;-6.300;2023-07-30T03:40:30;100202.97;;;15.28;89.16
64368;BME280;50692;53.314;-6.300;2023-07-30T03:43:16;100198.03;;;15.23;88.60
64368;BME280;50692;53.314;-6.300;2023-07-30T03:46:02;100201.53;;;15.24;88.62
64368;BME280;50692;53.314;-6.300;2023-07-30T03:48:47;100202.38;;;15.24;88.40
64368;BME280;50692;53.314;-6.300;2023-07-30T03:51:35;100197.19;;;15.23;88.32
64368;BME280;50692;53.314;-6.300;2023-07-30T03:54:21;100207.59;;;15.26;87.95
64368;BME280;50692;53.314;-6.300;2023-07-30T03:57:07;100194.63;;;15.21;87.71
64368;BME280;50692;53.314;-6.300;2023-07-30T03:59:52;100201.06;;;15.30;87.76
64368;BME280;50692;53.314;-6.300;2023-07-30T04:02:38;100222.69;;;15.25;87.48
64368;BME280;50692;53.314;-6.300;2023-07-30T04:05:24;100215.00;;;15.22;87.52
64368;BME280;50692;53.314;-6.300;2023-07-30T04:08:10;100208.44;;;15.26;87.22
64368;BME280;50692;53.314;-6.300;2023-07-30T04:10:55;100218.59;;;15.21;87.27
64368;BME280;50692;53.314;-6.300;2023-07-30T04:13:41;100221.78;;;15.15;87.96
64368;BME280;50692;53.314;-6.300;2023-07-30T04:16:27;100225.28;;;15.16;87.63
64368;BME280;50692;53.314;-6.300;2023-07-30T04:19:13;100227.09;;;15.15;87.70
64368;BME280;50692;53.314;-6.300;2023-07-30T04:21:59;100231.19;;;15.19;87.85
64368;BME280;50692;53.314;-6.300;2023-07-30T04:24:45;100227.81;;;15.17;87.82
64368;BME280;50692;53.314;-6.300;2023-07-30T04:27:31;100229.00;;;15.24;87.71
64368;BME280;50692;53.314;-6.300;2023-07-30T04:30:17;100227.81;;;15.17;87.39
64368;BME280;50692;53.314;-6.300;2023-07-30T04:33:02;100235.06;;;15.26;87.52
64368;BME280;50692;53.314;-6.300;2023-07-30T04:35:48;100233.34;;;15.25;87.26
64368;BME280;50692;53.314;-6.300;2023-07-30T04:38:34;100225.38;;;15.25;86.86
64368;BME280;50692;53.314;-6.300;2023-07-30T04:41:22;100242.91;;;15.28;86.31
64368;BME280;50692;53.314;-6.300;2023-07-30T04:44:07;100236.50;;;15.30;86.57
64368;BME280;50692;53.314;-6.300;2023-07-30T04:46:53;100242.31;;;15.24;86.30
64368;BME280;50692;53.314;-6.300;2023-07-30T04:49:39;100239.06;;;15.21;86.37
64368;BME280;50692;53.314;-6.300;2023-07-30T04:52:25;100247.53;;;15.26;86.25
64368;BME280;50692;53.314;-6.300;2023-07-30T04:55:11;100239.56;;;15.26;86.22
64368;BME280;50692;53.314;-6.300;2023-07-30T04:57:57;100243.75;;;15.28;86.08
64368;BME280;50692;53.314;-6.300;2023-07-30T05:00:43;100253.31;;;15.31;86.42
64368;BME280;50692;53.314;-6.300;2023-07-30T05:03:29;100258.78;;;15.29;86.21
64368;BME280;50692;53.314;-6.300;2023-07-30T05:06:15;100254.41;;;15.17;86.07
64368;BME280;50692;53.314;-6.300;2023-07-30T05:09:00;100272.06;;;15.18;86.32
64368;BME280;50692;53.314;-6.300;2023-07-30T05:11:46;100264.38;;;15.15;86.36
64368;BME280;50692;53.314;-6.300;2023-07-30T05:14:32;100259.03;;;15.15;86.17
64368;BME280;50692;53.314;-6.300;2023-07-30T05:17:18;100263.88;;;15.10;86.75
64368;BME280;50692;53.314;-6.300;2023-07-30T05:20:04;100254.66;;;15.14;86.47
64368;BME280;50692;53.314;-6.300;2023-07-30T05:22:50;100269.78;;;15.14;86.65
64368;BME280;50692;53.314;-6.300;2023-07-30T05:25:36;100269.78;;;15.14;87.12
64368;BME280;50692;53.314;-6.300;2023-07-30T05:28:22;100275.72;;;15.17;87.85
64368;BME280;50692;53.314;-6.300;2023-07-30T05:31:08;100268.94;;;15.24;87.51
64368;BME280;50692;53.314;-6.300;2023-07-30T05:33:53;100270.38;;;15.28;87.60
64368;BME280;50692;53.314;-6.300;2023-07-30T05:36:39;100276.22;;;15.33;87.63
64368;BME280;50692;53.314;-6.300;2023-07-30T05:39:25;100274.38;;;15.34;87.86
64368;BME280;50692;53.314;-6.300;2023-07-30T05:42:11;100272.31;;;15.38;87.49
64368;BME280;50692;53.314;-6.300;2023-07-30T05:44:57;100268.59;;;15.40;87.33
64368;BME280;50692;53.314;-6.300;2023-07-30T05:47:43;100280.78;;;15.43;87.03
64368;BME280;50692;53.314;-6.300;2023-07-30T05:50:29;100283.59;;;15.41;87.10
64368;BME280;50692;53.314;-6.300;2023-07-30T05:53:14;100288.06;;;15.41;86.89
64368;BME280;50692;53.314;-6.300;2023-07-30T05:56:00;100278.72;;;15.46;86.95
64368;BME280;50692;53.314;-6.300;2023-07-30T05:58:46;100287.56;;;15.47;86.54
64368;BME280;50692;53.314;-6.300;2023-07-30T06:01:32;100305.69;;;15.64;86.39
64368;BME280;50692;53.314;-6.300;2023-07-30T06:04:18;100298.81;;;15.73;85.81
64368;BME280;50692;53.314;-6.300;2023-07-30T06:07:04;100299.78;;;15.72;85.77
64368;BME280;50692;53.314;-6.300;2023-07-30T06:09:50;100302.69;;;15.80;85.75
64368;BME280;50692;53.314;-6.300;2023-07-30T06:12:35;100309.22;;;15.76;86.31
64368;BME280;50692;53.314;-6.300;2023-07-30T06:15:21;100311.88;;;15.76;86.87
64368;BME280;50692;53.314;-6.300;2023-07-30T06:18:07;100318.69;;;15.69;88.11
64368;BME280;50692;53.314;-6.300;2023-07-30T06:20:54;100316.13;;;15.67;88.59
64368;BME280;50692;53.314;-6.300;2023-07-30T06:23:40;100311.25;;;15.61;89.88
64368;BME280;50692;53.314;-6.300;2023-07-30T06:26:26;100323.13;;;15.57;90.91
64368;BME280;50692;53.314;-6.300;2023-07-30T06:29:12;100308.63;;;15.50;91.42
64368;BME280;50692;53.314;-6.300;2023-07-30T06:31:57;100318.56;;;15.48;92.30
64368;BME280;50692;53.314;-6.300;2023-07-30T06:34:43;100309.38;;;15.41;93.06
64368;BME280;50692;53.314;-6.300;2023-07-30T06:37:29;100315.66;;;15.51;93.28
64368;BME280;50692;53.314;-6.300;2023-07-30T06:40:15;100310.41;;;15.60;93.46
64368;BME280;50692;53.314;-6.300;2023-07-30T06:43:01;100310.06;;;15.65;92.17
64368;BME280;50692;53.314;-6.300;2023-07-30T06:45:46;100303.56;;;15.69;90.58
64368;BME280;50692;53.314;-6.300;2023-07-30T06:48:32;100295.63;;;15.79;89.83
64368;BME280;50692;53.314;-6.300;2023-07-30T06:51:19;100290.31;;;15.79;88.96
64368;BME280;50692;53.314;-6.300;2023-07-30T06:54:05;100294.31;;;15.85;88.22
64368;BME280;50692;53.314;-6.300;2023-07-30T06:56:51;100301.53;;;16.05;87.90
64368;BME280;50692;53.314;-6.300;2023-07-30T06:59:36;100299.81;;;16.04;86.79
64368;BME280;50692;53.314;-6.300;2023-07-30T07:02:22;100296.41;;;16.13;86.01
64368;BME280;50692;53.314;-6.300;2023-07-30T07:05:08;100301.81;;;16.23;85.13
64368;BME280;50692;53.314;-6.300;2023-07-30T07:07:55;100313.38;;;16.33;84.17
64368;BME280;50692;53.314;-6.300;2023-07-30T07:10:44;100314.47;;;16.42;82.74
64368;BME280;50692;53.314;-6.300;2023-07-30T07:13:29;100319.53;;;16.45;82.15
64368;BME280;50692;53.314;-6.300;2023-07-30T07:16:15;100311.88;;;16.51;81.84
64368;BME280;50692;53.314;-6.300;2023-07-30T07:19:01;100320.25;;;16.68;82.01
64368;BME280;50692;53.314;-6.300;2023-07-30T07:21:47;100323.28;;;16.74;81.28
64368;BME280;50692;53.314;-6.300;2023-07-30T07:24:33;100322.22;;;16.87;80.61
64368;BME280;50692;53.314;-6.300;2023-07-30T07:27:19;100329.13;;;16.89;79.13
64368;BME280;50692;53.314;-6.300;2023-07-30T07:30:05;100324.38;;;16.93;79.01
64368;BME280;50692;53.314;-6.300;2023-07-30T07:32:52;100328.69;;;17.05;78.86
64368;BME280;50692;53.314;-6.300;2023-07-30T07:35:39;100322.63;;;17.03;78.06
64368;BME280;50692;53.314;-6.300;2023-07-30T07:38:25;100325.66;;;17.19;77.57
64368;BME280;50692;53.314;-6.300;2023-07-30T07:41:16;100324.72;;;17.30;76.97
64368;BME280;50692;53.314;-6.300;2023-07-30T07:44:02;100324.22;;;17.46;76.77
64368;BME280;50692;53.314;-6.300;2023-07-30T07:46:48;100327.06;;;17.54;75.67
64368;BME280;50692;53.314;-6.300;2023-07-30T07:49:34;100324.53;;;17.53;75.19
64368;BME280;50692;53.314;-6.300;2023-07-30T07:52:19;100332.00;;;17.59;74.44
64368;BME280;50692;53.314;-6.300;2023-07-30T07:55:06;100321.47;;;17.67;74.77
64368;BME280;50692;53.314;-6.300;2023-07-30T07:57:52;100330.00;;;17.82;74.51
64368;BME280;50692;53.314;-6.300;2023-07-30T08:00:38;100333.06;;;17.87;74.18
64368;BME280;50692;53.314;-6.300;2023-07-30T08:03:24;100322.69;;;17.93;73.67
64368;BME280;50692;53.314;-6.300;2023-07-30T08:06:12;100330.00;;;18.01;73.06
64368;BME280;50692;53.314;-6.300;2023-07-30T08:08:59;100337.34;;;18.18;72.92
64368;BME280;50692;53.314;-6.300;2023-07-30T08:11:45;100337.38;;;18.28;71.79
64368;BME280;50692;53.314;-6.300;2023-07-30T08:14:31;100321.59;;;18.25;70.63
64368;BME280;50692;53.314;-6.300;2023-07-30T08:17:18;100327.22;;;18.22;70.32
64368;BME280;50692;53.314;-6.300;2023-07-30T08:20:04;100324.25;;;18.15;70.29
64368;BME280;50692;53.314;-6.300;2023-07-30T08:22:50;100332.59;;;18.12;70.43
64368;BME280;50692;53.314;-6.300;2023-07-30T08:25:36;100331.44;;;18.15;70.52
64368;BME280;50692;53.314;-6.300;2023-07-30T08:28:21;100350.44;;;18.12;70.22
64368;BME280;50692;53.314;-6.300;2023-07-30T08:31:07;100331.59;;;18.13;70.02
64368;BME280;50692;53.314;-6.300;2023-07-30T08:33:53;100336.41;;;18.19;70.28
64368;BME280;50692;53.314;-6.300;2023-07-30T08:36:39;100336.25;;;18.21;69.91
64368;BME280;50692;53.314;-6.300;2023-07-30T08:39:25;100344.56;;;18.28;69.50
64368;BME280;50692;53.314;-6.300;2023-07-30T08:42:10;100342.19;;;18.34;68.94
64368;BME280;50692;53.314;-6.300;2023-07-30T08:44:56;100345.13;;;18.31;69.11
64368;BME280;50692;53.314;-6.300;2023-07-30T08:47:42;100337.22;;;18.30;68.47
64368;BME280;50692;53.314;-6.300;2023-07-30T08:50:29;100338.06;;;18.20;67.87
64368;BME280;50692;53.314;-6.300;2023-07-30T08:53:15;100355.22;;;18.08;67.36
64368;BME280;50692;53.314;-6.300;2023-07-30T08:56:01;100351.41;;;18.01;67.52
64368;BME280;50692;53.314;-6.300;2023-07-30T08:58:48;100356.19;;;17.88;68.51
64368;BME280;50692;53.314;-6.300;2023-07-30T09:01:38;100360.66;;;17.78;72.03
64368;BME280;50692;53.314;-6.300;2023-07-30T09:04:25;100358.63;;;17.70;74.03
64368;BME280;50692;53.314;-6.300;2023-07-30T09:07:11;100364.19;;;17.57;76.89
64368;BME280;50692;53.314;-6.300;2023-07-30T09:10:06;100340.81;;;17.19;80.71
64368;BME280;50692;53.314;-6.300;2023-07-30T09:13:03;100369.50;;;17.17;83.32
64368;BME280;50692;53.314;-6.300;2023-07-30T09:15:50;100356.88;;;16.98;85.02
64368;BME280;50692;53.314;-6.300;2023-07-30T09:18:44;100357.22;;;16.84;85.99
64368;BME280;50692;53.314;-6.300;2023-07-30T09:21:33;100372.44;;;16.93;87.33
64368;BME280;50692;53.314;-6.300;2023-07-30T09:24:22;100368.44;;;17.08;87.31
64368;BME280;50692;53.314;-6.300;2023-07-30T09:27:10;100354.41;;;17.06;86.85
64368;BME280;50692;53.314;-6.300;2023-07-30T09:29:56;100371.81;;;17.31;85.90
64368;BME280;50692;53.314;-6.300;2023-07-30T09:32:43;100370.06;;;17.41;84.85
64368;BME280;50692;53.314;-6.300;2023-07-30T09:35:34;100352.88;;;17.44;83.83
64368;BME280;50692;53.314;-6.300;2023-07-30T09:38:20;100362.25;;;17.69;82.43
64368;BME280;50692;53.314;-6.300;2023-07-30T09:41:06;100369.50;;;17.78;80.66
64368;BME280;50692;53.314;-6.300;2023-07-30T09:43:58;100359.28;;;17.93;79.90
64368;BME280;50692;53.314;-6.300;2023-07-30T09:46:48;100353.13;;;18.02;78.67
64368;BME280;50692;53.314;-6.300;2023-07-30T09:49:37;100347.03;;;18.00;77.13
64368;BME280;50692;53.314;-6.300;2023-07-30T09:52:22;100346.91;;;18.11;76.68
64368;BME280;50692;53.314;-6.300;2023-07-30T09:55:09;100354.41;;;18.17;75.75
64368;BME280;50692;53.314;-6.300;2023-07-30T09:57:55;100355.41;;;18.16;75.10
64368;BME280;50692;53.314;-6.300;2023-07-30T10:00:44;100332.28;;;17.96;74.92
64368;BME280;50692;53.314;-6.300;2023-07-30T10:03:32;100363.97;;;18.10;74.46
64368;BME280;50692;53.314;-6.300;2023-07-30T10:06:24;100360.38;;;17.90;73.38
64368;BME280;50692;53.314;-6.300;2023-07-30T10:09:12;100328.97;;;17.73;72.94
64368;BME280;50692;53.314;-6.300;2023-07-30T10:11:59;100366.88;;;17.97;72.66
64368;BME280;50692;53.314;-6.300;2023-07-30T10:14:49;100355.34;;;17.97;72.97
64368;BME280;50692;53.314;-6.300;2023-07-30T10:17:37;100326.91;;;17.96;72.67
64368;BME280;50692;53.314;-6.300;2023-07-30T10:20:25;100366.09;;;18.26;72.71
64368;BME280;50692;53.314;-6.300;2023-07-30T10:23:11;100364.81;;;18.20;72.51
64368;BME280;50692;53.314;-6.300;2023-07-30T10:25:57;100359.63;;;18.29;73.21
64368;BME280;50692;53.314;-6.300;2023-07-30T10:28:44;100323.28;;;18.26;72.33
64368;BME280;50692;53.314;-6.300;2023-07-30T10:32:03;100360.34;;;18.60;70.67
64368;BME280;50692;53.314;-6.300;2023-07-30T10:34:50;100367.09;;;18.64;69.52
64368;BME280;50692;53.314;-6.300;2023-07-30T10:37:45;100357.63;;;18.69;69.45
64368;BME280;50692;53.314;-6.300;2023-07-30T10:40:33;100365.13;;;18.76;68.20
64368;BME280;50692;53.314;-6.300;2023-07-30T10:43:20;100343.00;;;18.54;67.94
64368;BME280;50692;53.314;-6.300;2023-07-30T10:46:07;100368.94;;;18.63;68.67
64368;BME280;50692;53.314;-6.300;2023-07-30T10:48:54;100341.47;;;18.42;68.23
64368;BME280;50692;53.314;-6.300;2023-07-30T10:51:39;100353.97;;;18.51;68.99
64368;BME280;50692;53.314;-6.300;2023-07-30T10:54:25;100345.81;;;18.62;68.98
64368;BME280;50692;53.314;-6.300;2023-07-30T10:57:11;100354.56;;;18.64;68.21
64368;BME280;50692;53.314;-6.300;2023-07-30T11:00:08;100354.81;;;18.52;68.22
64368;BME280;50692;53.314;-6.300;2023-07-30T11:02:56;100344.53;;;18.37;68.77
64368;BME280;50692;53.314;-6.300;2023-07-30T11:05:42;100354.41;;;18.46;69.55
64368;BME280;50692;53.314;-6.300;2023-07-30T11:08:38;100358.06;;;18.65;70.09
64368;BME280;50692;53.314;-6.300;2023-07-30T11:11:24;100365.28;;;18.74;69.20
64368;BME280;50692;53.314;-6.300;2023-07-30T11:14:15;100359.06;;;18.64;68.99
64368;BME280;50692;53.314;-6.300;2023-07-30T11:17:01;100362.72;;;18.63;68.71
64368;BME280;50692;53.314;-6.300;2023-07-30T11:19:49;100356.25;;;18.75;67.77
64368;BME280;50692;53.314;-6.300;2023-07-30T11:22:35;100353.84;;;18.62;67.59
64368;BME280;50692;53.314;-6.300;2023-07-30T11:25:27;100349.59;;;18.69;68.46
64368;BME280;50692;53.314;-6.300;2023-07-30T11:28:13;100354.16;;;18.79;68.76
64368;BME280;50692;53.314;-6.300;2023-07-30T11:31:02;100339.19;;;18.57;67.44
64368;BME280;50692;53.314;-6.300;2023-07-30T11:33:49;100333.16;;;18.45;67.95
64368;BME280;50692;53.314;-6.300;2023-07-30T11:36:37;100348.78;;;18.59;68.45
64368;BME280;50692;53.314;-6.300;2023-07-30T11:39:23;100350.47;;;18.70;69.41
64368;BME280;50692;53.314;-6.300;2023-07-30T11:42:12;100358.50;;;18.60;69.03
64368;BME280;50692;53.314;-6.300;2023-07-30T11:45:22;100357.38;;;18.43;69.39
64368;BME280;50692;53.314;-6.300;2023-07-30T11:48:09;100353.84;;;18.43;70.27
64368;BME280;50692;53.314;-6.300;2023-07-30T11:50:57;100349.47;;;18.52;70.75
64368;BME280;50692;53.314;-6.300;2023-07-30T11:53:46;100349.75;;;18.68;70.39
64368;BME280;50692;53.314;-6.300;2023-07-30T11:56:34;100344.28;;;18.79;70.40
64368;BME280;50692;53.314;-6.300;2023-07-30T11:59:20;100340.31;;;18.93;70.31
64368;BME280;50692;53.314;-6.300;2023-07-30T12:02:08;100346.47;;;19.13;69.63
64368;BME280;50692;53.314;-6.300;2023-07-30T12:04:55;100347.31;;;19.13;68.97
64368;BME280;50692;53.314;-6.300;2023-07-30T12:07:43;100353.06;;;19.18;68.18
64368;BME280;50692;53.314;-6.300;2023-07-30T12:10:49;100338.53;;;19.21;68.33
64368;BME280;50692;53.314;-6.300;2023-07-30T12:13:46;100332.38;;;19.11;67.17
64368;BME280;50692;53.314;-6.300;2023-07-30T12:16:32;100340.97;;;19.14;67.80
64368;BME280;50692;53.314;-6.300;2023-07-30T12:19:18;100339.84;;;19.07;67.76
64368;BME280;50692;53.314;-6.300;2023-07-30T12:22:04;100331.84;;;18.98;67.61
64368;BME280;50692;53.314;-6.300;2023-07-30T12:24:53;100340.88;;;18.97;68.41
64368;BME280;50692;53.314;-6.300;2023-07-30T12:27:40;100321.84;;;18.90;68.45
64368;BME280;50692;53.314;-6.300;2023-07-30T12:30:27;100320.09;;;19.08;68.81
64368;BME280;50692;53.314;-6.300;2023-07-30T12:33:15;100330.78;;;19.28;68.53
64368;BME280;50692;53.314;-6.300;2023-07-30T12:36:02;100321.22;;;19.15;69.48
64368;BME280;50692;53.314;-6.300;2023-07-30T12:38:48;100336.97;;;19.28;69.92
64368;BME280;50692;53.314;-6.300;2023-07-30T12:41:34;100286.44;;;19.06;70.39
64368;BME280;50692;53.314;-6.300;2023-07-30T12:44:19;100326.34;;;19.36;70.17
64368;BME280;50692;53.314;-6.300;2023-07-30T12:47:05;100322.53;;;19.39;69.98
64368;BME280;50692;53.314;-6.300;2023-07-30T12:49:54;100322.63;;;19.47;70.06
64368;BME280;50692;53.314;-6.300;2023-07-30T12:52:40;100327.81;;;19.58;70.47
64368;BME280;50692;53.314;-6.300;2023-07-30T12:55:25;100316.53;;;19.55;70.66
64368;BME280;50692;53.314;-6.300;2023-07-30T12:58:11;100321.44;;;19.69;70.38
64368;BME280;50692;53.314;-6.300;2023-07-30T13:00:58;100321.56;;;19.95;70.12
64368;BME280;50692;53.314;-6.300;2023-07-30T13:03:44;100308.44;;;19.74;70.25
64368;BME280;50692;53.314;-6.300;2023-07-30T13:06:33;100325.78;;;19.98;70.39
64368;BME280;50692;53.314;-6.300;2023-07-30T13:09:19;100306.84;;;19.99;71.24
64368;BME280;50692;53.314;-6.300;2023-07-30T13:12:05;100313.19;;;19.98;72.32
64368;BME280;50692;53.314;-6.300;2023-07-30T13:14:52;100298.72;;;19.91;72.29
64368;BME280;50692;53.314;-6.300;2023-07-30T13:17:41;100298.38;;;19.76;72.97
64368;BME280;50692;53.314;-6.300;2023-07-30T13:20:27;100315.94;;;19.71;73.61
64368;BME280;50692;53.314;-6.300;2023-07-30T13:23:13;100315.16;;;19.51;74.85
64368;BME280;50692;53.314;-6.300;2023-07-30T13:26:00;100322.19;;;19.52;75.67
64368;BME280;50692;53.314;-6.300;2023-07-30T13:28:47;100318.75;;;19.32;77.19
64368;BME280;50692;53.314;-6.300;2023-07-30T13:31:33;100286.28;;;19.07;78.92
64368;BME280;50692;53.314;-6.300;2023-07-30T13:34:18;100309.75;;;19.23;79.39
64368;BME280;50692;53.314;-6.300;2023-07-30T13:37:04;100300.19;;;19.21;79.91
64368;BME280;50692;53.314;-6.300;2023-07-30T13:39:51;100291.19;;;19.12;81.21
64368;BME280;50692;53.314;-6.300;2023-07-30T13:42:38;100286.44;;;19.06;81.69
64368;BME280;50692;53.314;-6.300;2023-07-30T13:45:24;100299.22;;;19.12;82.65
64368;BME280;50692;53.314;-6.300;2023-07-30T13:48:10;100286.34;;;19.25;83.07
64368;BME280;50692;53.314;-6.300;2023-07-30T13:50:56;100288.38;;;19.13;84.48
64368;BME280;50692;53.314;-6.300;2023-07-30T13:54:07;100299.91;;;19.24;84.34
64368;BME280;50692;53.314;-6.300;2023-07-30T13:57:02;100288.75;;;19.28;84.27
64368;BME280;50692;53.314;-6.300;2023-07-30T13:59:50;100275.88;;;19.32;85.26
64368;BME280;50692;53.314;-6.300;2023-07-30T14:02:35;100264.63;;;19.28;84.13
64368;BME280;50692;53.314;-6.300;2023-07-30T14:05:22;100262.78;;;19.29;84.36
64368;BME280;50692;53.314;-6.300;2023-07-30T14:08:08;100263.34;;;19.32;83.95
64368;BME280;50692;53.314;-6.300;2023-07-30T14:10:55;100255.94;;;19.16;84.44
64368;BME280;50692;53.314;-6.300;2023-07-30T14:13:45;100251.81;;;19.22;84.68
64368;BME280;50692;53.314;-6.300;2023-07-30T14:16:31;100235.59;;;19.24;84.72
64368;BME280;50692;53.314;-6.300;2023-07-30T14:19:17;100211.72;;;19.03;84.78
64368;BME280;50692;53.314;-6.300;2023-07-30T14:22:04;100227.31;;;19.17;84.98